createdAt,value
2019-03-04T00:01:00.300Z,2.10
2019-03-04T00:03:27.881Z,1.93
2019-03-04T00:05:55.332Z,1.70
2019-03-04T00:08:22.876Z,1.90
2019-03-04T00:10:50.454Z,1.80
2019-03-04T00:13:17.927Z,1.97
2019-03-04T00:15:45.383Z,1.93
2019-03-04T00:18:12.857Z,1.80
2019-03-04T00:20:41.837Z,1.57
2019-03-04T00:23:09.301Z,1.83
2019-03-04T00:25:36.749Z,1.80
2019-03-04T00:28:04.221Z,2.07
2019-03-04T00:30:31.784Z,2.20
2019-03-04T00:32:59.254Z,2.10
2019-03-04T00:35:26.708Z,1.70
2019-03-04T00:37:54.176Z,1.90
2019-03-04T00:40:21.733Z,2.00
2019-03-04T00:42:49.193Z,1.83
2019-03-04T00:45:16.761Z,1.80
2019-03-04T00:47:44.229Z,1.80
2019-03-04T00:50:12.402Z,2.13
2019-03-04T00:52:39.860Z,1.90
2019-03-04T00:55:07.326Z,1.83
2019-03-04T00:57:34.813Z,2.00
2019-03-04T01:00:13.725Z,2.10
2019-03-04T01:02:41.178Z,1.63
2019-03-04T01:05:08.679Z,1.70
2019-03-04T01:07:36.207Z,1.73
2019-03-04T01:10:05.393Z,1.95
2019-03-04T01:12:32.958Z,1.90
2019-03-04T01:15:00.520Z,1.63
2019-03-04T01:17:28.676Z,2.00
2019-03-04T01:19:56.162Z,1.73
2019-03-04T01:22:23.655Z,1.60
2019-03-04T01:24:51.883Z,1.63
2019-03-04T01:27:19.338Z,1.93
2019-03-04T01:29:46.834Z,1.70
2019-03-04T01:32:14.299Z,1.90
2019-03-04T01:34:41.859Z,1.60
2019-03-04T01:37:09.424Z,1.67
2019-03-04T01:39:36.973Z,1.80
2019-03-04T01:42:04.441Z,2.00
2019-03-04T01:44:31.922Z,1.70
2019-03-04T01:47:00.144Z,1.40
2019-03-04T01:49:27.705Z,1.50
2019-03-04T01:51:55.152Z,1.30
2019-03-04T01:54:22.607Z,1.30
2019-03-04T01:56:50.853Z,1.83
2019-03-04T01:59:18.413Z,1.70
2019-03-04T02:01:45.878Z,1.67
2019-03-04T02:04:13.378Z,1.47
2019-03-04T02:06:41.610Z,1.60
2019-03-04T02:09:09.106Z,1.60
2019-03-04T02:11:36.569Z,1.73
2019-03-04T02:14:04.106Z,1.73
2019-03-04T02:16:31.568Z,1.63
2019-03-04T02:18:59.040Z,1.63
2019-03-04T02:21:26.499Z,1.60
2019-03-04T02:23:53.940Z,1.83
2019-03-04T02:26:21.423Z,1.90
2019-03-04T02:28:48.873Z,2.27
2019-03-04T02:31:16.344Z,2.37
2019-03-04T02:33:43.850Z,3.50
2019-03-04T02:36:11.337Z,2.37
2019-03-04T02:38:38.839Z,2.27
2019-03-04T02:41:06.399Z,2.13
2019-03-04T02:43:33.849Z,2.10
2019-03-04T02:46:01.536Z,2.60
2019-03-04T02:48:28.993Z,2.27
2019-03-04T02:50:56.460Z,1.50
2019-03-04T02:53:23.919Z,1.70
2019-03-04T02:55:52.517Z,2.27
2019-03-04T02:58:20.098Z,1.67
2019-03-04T03:00:48.462Z,1.90
2019-03-04T03:03:15.950Z,1.73
2019-03-04T03:05:44.713Z,1.87
2019-03-04T03:08:13.684Z,1.53
2019-03-04T03:10:41.151Z,2.03
2019-03-04T03:13:08.616Z,1.97
2019-03-04T03:15:36.071Z,2.33
2019-03-04T03:18:04.680Z,2.03
2019-03-04T03:20:32.147Z,1.97
2019-03-04T03:22:59.710Z,2.30
2019-03-04T03:25:27.177Z,1.77
2019-03-04T03:27:55.051Z,1.57
2019-03-04T03:30:22.607Z,1.80
2019-03-04T03:32:50.286Z,1.93
2019-03-04T03:35:18.435Z,1.50
2019-03-04T03:37:45.946Z,1.40
2019-03-04T03:40:15.003Z,1.47
2019-03-04T03:42:42.475Z,1.20
2019-03-04T03:45:09.927Z,1.50
2019-03-04T03:47:37.498Z,1.47
2019-03-04T03:50:05.762Z,1.10
2019-03-04T03:52:33.326Z,1.50
2019-03-04T03:55:00.772Z,1.13
2019-03-04T03:57:28.259Z,1.40
2019-03-04T03:59:55.719Z,1.20
2019-03-04T04:02:23.187Z,1.20
2019-03-04T04:04:51.409Z,1.63
2019-03-04T04:07:18.891Z,1.20
2019-03-04T04:09:46.395Z,1.27
2019-03-04T04:12:14.615Z,1.30
2019-03-04T04:14:42.113Z,1.50
2019-03-04T04:17:09.578Z,1.03
2019-03-04T04:19:37.175Z,1.40
2019-03-04T04:22:04.626Z,1.30
2019-03-04T04:24:33.610Z,1.00
2019-03-04T04:27:01.086Z,1.20
2019-03-04T04:29:28.550Z,1.20
2019-03-04T04:31:56.097Z,1.13
2019-03-04T04:34:25.100Z,1.13
2019-03-04T04:36:52.575Z,1.40
2019-03-04T04:39:21.230Z,1.20
2019-03-04T04:41:48.682Z,1.30
2019-03-04T04:44:17.284Z,1.50
2019-03-04T04:46:45.650Z,1.10
2019-03-04T04:49:13.112Z,1.93
2019-03-04T04:51:40.587Z,1.83
2019-03-04T04:54:08.049Z,1.70
2019-03-04T04:56:36.682Z,2.80
2019-03-04T04:59:04.907Z,1.90
2019-03-04T05:01:32.352Z,1.63
2019-03-04T05:03:59.857Z,1.63
2019-03-04T05:06:27.417Z,1.40
2019-03-04T05:08:54.985Z,2.07
2019-03-04T05:11:23.219Z,1.83
2019-03-04T05:13:50.680Z,1.60
2019-03-04T05:16:18.213Z,1.47
2019-03-04T05:18:46.429Z,1.70
2019-03-04T05:21:13.918Z,1.53
2019-03-04T05:23:41.387Z,1.77
2019-03-04T05:26:08.854Z,1.07
2019-03-04T05:28:36.404Z,1.30
2019-03-04T05:31:04.361Z,1.87
2019-03-04T05:33:31.836Z,1.10
2019-03-04T05:36:00.076Z,1.57
2019-03-04T05:38:28.308Z,1.20
2019-03-04T05:40:55.851Z,1.73
2019-03-04T05:43:23.331Z,1.07
2019-03-04T05:45:50.786Z,1.30
2019-03-04T05:48:18.254Z,1.20
2019-03-04T05:50:45.725Z,1.10
2019-03-04T05:53:13.174Z,1.23
2019-03-04T05:55:40.636Z,1.60
2019-03-04T05:58:08.104Z,1.60
2019-03-04T06:00:36.508Z,1.67
2019-03-04T06:03:04.732Z,1.33
2019-03-04T06:05:32.225Z,1.60
2019-03-04T06:08:00.588Z,1.40
2019-03-04T06:10:28.083Z,1.60
2019-03-04T06:12:55.538Z,1.63
2019-03-04T06:15:23.033Z,1.33
2019-03-04T06:17:51.273Z,1.50
2019-03-04T06:20:18.731Z,1.73
2019-03-04T06:22:46.190Z,1.90
2019-03-04T06:25:18.057Z,2.03
2019-03-04T06:27:45.514Z,1.90
2019-03-04T06:30:14.881Z,2.03
2019-03-04T06:32:42.391Z,2.17
2019-03-04T06:35:09.961Z,1.63
2019-03-04T06:37:37.428Z,1.93
2019-03-04T06:40:04.873Z,2.07
2019-03-04T06:42:32.342Z,2.90
2019-03-04T06:44:59.903Z,2.13
2019-03-04T06:47:27.502Z,2.03
2019-03-04T06:49:55.740Z,2.37
2019-03-04T06:52:23.220Z,2.03
2019-03-04T06:54:51.408Z,1.90
2019-03-04T06:57:27.881Z,1.97
2019-03-04T06:59:48.360Z,2.07
2019-03-04T07:02:16.631Z,2.40
2019-03-04T07:07:58.420Z,1.30
2019-03-04T07:10:25.904Z,1.20
2019-03-04T07:12:53.361Z,1.07
2019-03-04T07:15:20.850Z,1.37
2019-03-04T07:17:49.069Z,0.90
2019-03-04T07:20:16.517Z,0.97
2019-03-04T07:22:44.075Z,1.10
2019-03-04T07:25:11.534Z,1.00
2019-03-04T07:27:39.038Z,0.83
2019-03-04T07:30:12.935Z,1.10
2019-03-04T07:32:40.417Z,1.00
2019-03-04T07:35:07.869Z,1.00
2019-03-04T07:37:35.322Z,0.90
2019-03-04T07:40:03.689Z,1.00
2019-03-04T07:42:31.357Z,0.83
2019-03-04T07:44:58.700Z,1.33
2019-03-04T07:47:26.172Z,0.87
2019-03-04T07:49:53.616Z,1.20
2019-03-04T07:52:21.131Z,0.90
2019-03-04T07:54:48.583Z,0.90
2019-03-04T07:57:16.255Z,0.80
2019-03-04T07:59:43.712Z,0.83
2019-03-04T08:02:11.169Z,0.77
2019-03-04T08:04:38.633Z,1.23
2019-03-04T08:10:11.132Z,1.08
2019-03-04T08:12:49.132Z,1.00
2019-03-04T08:15:16.636Z,0.83
2019-03-04T08:17:44.087Z,1.00
2019-03-04T08:20:12.306Z,0.90
2019-03-04T08:22:39.762Z,0.60
2019-03-04T08:25:07.204Z,1.10
2019-03-04T08:27:34.690Z,1.33
2019-03-04T08:30:04.211Z,1.10
2019-03-04T08:32:31.704Z,1.00
2019-03-04T08:35:00.655Z,1.20
2019-03-04T08:37:28.115Z,0.87
2019-03-04T08:39:55.603Z,1.07
2019-03-04T08:42:23.079Z,1.00
2019-03-04T08:44:50.533Z,1.00
2019-03-04T08:47:18.207Z,1.43
2019-03-04T08:49:45.773Z,1.40
2019-03-04T08:52:13.217Z,1.53
2019-03-04T08:54:40.683Z,1.13
2019-03-04T08:57:08.143Z,1.23
2019-03-04T08:59:35.610Z,1.20
2019-03-04T09:02:04.369Z,1.37
2019-03-04T09:04:31.858Z,1.40
2019-03-04T09:06:59.322Z,1.50
2019-03-04T09:09:26.876Z,1.60
2019-03-04T09:11:54.445Z,1.40
2019-03-04T09:14:21.916Z,1.20
2019-03-04T09:16:49.483Z,0.97
2019-03-04T09:19:17.052Z,1.50
2019-03-04T09:21:44.488Z,1.20
2019-03-04T09:24:12.649Z,1.27
2019-03-04T09:26:40.110Z,1.23
2019-03-04T09:29:07.586Z,1.23
2019-03-04T09:31:35.038Z,1.10
2019-03-04T09:34:03.423Z,1.80
2019-03-04T09:36:30.910Z,1.40
2019-03-04T09:38:58.353Z,1.13
2019-03-04T09:41:25.820Z,1.27
2019-03-04T09:43:53.265Z,1.20
2019-03-04T09:46:20.774Z,1.77
2019-03-04T09:48:48.240Z,1.13
2019-03-04T09:51:23.986Z,1.70
2019-03-04T09:53:43.979Z,1.73
2019-03-04T09:56:11.442Z,1.30
2019-03-04T09:58:39.701Z,1.50
2019-03-04T10:01:08.079Z,1.30
2019-03-04T10:03:52.224Z,1.73
2019-03-04T10:09:40.067Z,1.77
2019-03-04T10:12:11.217Z,2.00
2019-03-04T10:17:37.828Z,2.00
2019-03-04T10:23:11.362Z,2.15
2019-03-04T10:28:53.310Z,2.35
2019-03-04T10:31:31.314Z,1.60
2019-03-04T10:34:14.472Z,2.03
2019-03-04T10:36:57.289Z,1.77
2019-03-04T10:39:32.319Z,1.63
2019-03-04T10:45:28.842Z,2.35
2019-03-04T10:47:56.307Z,2.33
2019-03-04T10:50:23.862Z,1.93
2019-03-04T10:52:51.314Z,2.00
2019-03-04T10:55:18.771Z,1.73
2019-03-04T10:57:46.218Z,2.20
2019-03-04T11:00:14.531Z,1.80
2019-03-04T11:02:42.000Z,2.80
2019-03-04T11:05:09.455Z,2.30
2019-03-04T11:07:36.912Z,2.27
2019-03-04T11:10:04.369Z,2.00
2019-03-04T11:12:31.847Z,2.13
2019-03-04T11:15:00.237Z,2.00
2019-03-04T11:17:27.554Z,1.70
2019-03-04T11:19:55.025Z,2.20
2019-03-04T11:22:22.506Z,2.23
2019-03-04T11:24:49.954Z,2.00
2019-03-04T11:27:17.408Z,2.43
2019-03-04T11:29:44.901Z,2.30
2019-03-04T11:32:12.361Z,1.80
2019-03-04T11:34:39.823Z,2.33
2019-03-04T11:37:07.316Z,1.77
2019-03-04T11:39:50.423Z,2.50
2019-03-04T11:42:18.652Z,2.00
2019-03-04T11:44:46.111Z,2.30
2019-03-04T11:47:13.562Z,2.40
2019-03-04T11:49:41.053Z,1.60
2019-03-04T11:52:08.505Z,2.47
2019-03-04T11:54:36.095Z,2.00
2019-03-04T11:57:03.567Z,2.20
2019-03-04T11:59:32.231Z,2.23
2019-03-04T12:01:59.700Z,2.77
2019-03-04T12:04:27.178Z,2.37
2019-03-04T12:06:54.730Z,2.37
2019-03-04T12:09:22.199Z,1.87
2019-03-04T12:11:51.173Z,1.97
2019-03-04T12:14:18.622Z,1.97
2019-03-04T12:16:46.132Z,1.97
2019-03-04T12:19:14.346Z,2.10
2019-03-04T12:21:41.803Z,2.13
2019-03-04T12:24:09.273Z,1.83
2019-03-04T12:26:36.738Z,2.07
2019-03-04T12:29:04.222Z,1.93
2019-03-04T12:31:31.773Z,1.43
2019-03-04T12:33:59.209Z,2.67
2019-03-04T12:36:26.662Z,1.83
2019-03-04T12:38:54.173Z,1.60
2019-03-04T12:41:21.627Z,2.77
2019-03-04T12:43:49.111Z,2.10
2019-03-04T12:46:16.585Z,2.03
2019-03-04T12:48:44.037Z,1.80
2019-03-04T12:51:11.619Z,2.37
2019-03-04T12:53:39.066Z,2.17
2019-03-04T12:56:06.618Z,2.00
2019-03-04T12:58:34.201Z,1.73
2019-03-04T13:01:01.774Z,1.70
2019-03-04T13:03:30.032Z,1.47
2019-03-04T13:05:57.486Z,2.00
2019-03-04T13:08:25.059Z,2.20
2019-03-04T13:10:52.530Z,1.93
2019-03-04T13:13:20.074Z,1.80
2019-03-04T13:15:47.532Z,1.60
2019-03-04T13:18:15.018Z,1.57
2019-03-04T13:20:43.250Z,1.90
2019-03-04T13:23:10.696Z,1.93
2019-03-04T13:25:38.211Z,1.60
2019-03-04T13:28:08.418Z,2.10
2019-03-04T13:30:35.650Z,2.00
2019-03-04T13:33:04.943Z,2.10
2019-03-04T13:35:47.295Z,1.80
2019-03-04T13:38:14.776Z,1.57
2019-03-04T13:40:42.239Z,1.73
2019-03-04T13:43:10.478Z,1.70
2019-03-04T13:45:37.909Z,2.03
2019-03-04T13:48:06.237Z,1.60
2019-03-04T13:50:36.027Z,1.67
2019-03-04T13:53:03.516Z,1.93
2019-03-04T13:55:31.077Z,2.10
2019-03-04T13:57:58.543Z,1.80
2019-03-04T14:00:30.613Z,2.10
2019-03-04T14:02:58.096Z,1.70
2019-03-04T14:05:28.361Z,1.90
2019-03-04T14:07:55.851Z,2.23
2019-03-04T14:10:23.306Z,1.60
2019-03-04T14:12:50.852Z,1.60
2019-03-04T14:15:20.208Z,1.87
2019-03-04T14:17:48.433Z,1.70
2019-03-04T14:20:15.931Z,2.40
2019-03-04T14:22:43.416Z,2.13
2019-03-04T14:25:11.647Z,1.70
2019-03-04T14:27:39.173Z,2.00
2019-03-04T14:30:08.746Z,1.83
2019-03-04T14:32:36.202Z,1.60
2019-03-04T14:35:03.761Z,2.47
2019-03-04T14:37:31.325Z,1.63
2019-03-04T14:39:58.897Z,1.77
2019-03-04T14:42:26.354Z,1.90
2019-03-04T14:44:53.901Z,2.17
2019-03-04T14:47:22.200Z,2.27
2019-03-04T14:49:49.758Z,1.30
2019-03-04T14:52:17.338Z,2.10
2019-03-04T14:54:44.877Z,1.60
2019-03-04T14:57:12.446Z,2.17
2019-03-04T14:59:39.909Z,1.80
2019-03-04T15:02:07.361Z,2.00
2019-03-04T15:04:34.809Z,2.27
2019-03-04T15:07:02.273Z,2.50
2019-03-04T15:09:29.723Z,1.70
2019-03-04T15:11:57.191Z,1.70
2019-03-04T15:14:24.650Z,1.90
2019-03-04T15:16:52.128Z,2.43
2019-03-04T15:19:19.597Z,2.13
2019-03-04T15:21:49.119Z,2.07
2019-03-04T15:24:14.551Z,1.93
2019-03-04T15:26:44.253Z,1.93
2019-03-04T15:29:10.343Z,2.07
2019-03-04T15:31:37.841Z,2.30
2019-03-04T15:34:05.459Z,2.07
2019-03-04T15:36:32.900Z,1.80
2019-03-04T15:39:01.145Z,2.27
2019-03-04T15:41:28.730Z,1.70
2019-03-04T15:43:56.346Z,2.03
2019-03-04T15:46:23.828Z,1.90
2019-03-04T15:48:51.319Z,1.80
2019-03-04T15:51:19.589Z,1.80
2019-03-04T15:53:47.037Z,1.70
2019-03-04T15:56:14.502Z,1.90
2019-03-04T15:58:41.949Z,2.20
2019-03-04T16:01:09.411Z,1.90
2019-03-04T16:03:36.905Z,1.83
2019-03-04T16:06:04.353Z,2.07
2019-03-04T16:08:31.798Z,2.30
2019-03-04T16:10:59.253Z,2.27
2019-03-04T16:13:26.731Z,1.90
2019-03-04T16:15:54.273Z,1.80
2019-03-04T16:18:21.724Z,1.90
2019-03-04T16:20:49.183Z,2.10
2019-03-04T16:23:16.705Z,2.30
2019-03-04T16:25:44.952Z,2.07
2019-03-04T16:28:14.209Z,2.73
2019-03-04T16:30:42.435Z,1.97
2019-03-04T16:33:10.005Z,2.90
2019-03-04T16:35:37.460Z,2.47
2019-03-04T16:38:04.938Z,2.10
2019-03-04T16:40:32.497Z,2.10
2019-03-04T16:42:59.959Z,2.67
2019-03-04T16:45:27.402Z,1.80
2019-03-04T16:47:55.701Z,2.63
2019-03-04T16:50:26.771Z,1.73
2019-03-04T16:52:55.037Z,2.23
2019-03-04T16:55:22.591Z,2.10
2019-03-04T16:57:50.044Z,2.43
2019-03-04T17:00:17.515Z,2.73
2019-03-04T17:02:45.085Z,1.80
2019-03-04T17:05:12.636Z,2.00
2019-03-04T17:07:40.110Z,1.93
2019-03-04T17:10:08.345Z,2.67
2019-03-04T17:12:35.818Z,2.40
2019-03-04T17:15:04.639Z,2.20
2019-03-04T17:17:32.210Z,2.00
2019-03-04T17:19:59.725Z,2.10
2019-03-04T17:22:27.181Z,2.80
2019-03-04T17:24:54.691Z,2.80
2019-03-04T17:27:22.167Z,2.10
2019-03-04T17:29:49.623Z,1.60
2019-03-04T17:32:17.089Z,2.33
2019-03-04T17:34:46.056Z,1.60
2019-03-04T17:37:13.512Z,1.90
2019-03-04T17:39:41.000Z,1.83
2019-03-04T17:42:08.552Z,1.90
2019-03-04T17:44:36.137Z,2.30
2019-03-04T17:47:04.501Z,2.30
2019-03-04T17:49:31.966Z,1.90
2019-03-04T17:51:59.530Z,2.00
2019-03-04T17:54:27.093Z,2.00
2019-03-04T17:56:55.570Z,2.10
2019-03-04T17:59:23.040Z,2.50
2019-03-04T18:01:50.516Z,2.60
2019-03-04T18:04:19.522Z,1.97
2019-03-04T18:06:47.812Z,2.60
2019-03-04T18:09:16.055Z,1.90
2019-03-04T18:11:43.513Z,1.93
2019-03-04T18:14:10.978Z,2.10
2019-03-04T18:16:38.450Z,1.53
2019-03-04T18:19:05.921Z,2.20
2019-03-04T18:21:33.373Z,3.10
2019-03-04T18:24:00.862Z,2.20
2019-03-04T18:26:29.111Z,2.03
2019-03-04T18:28:57.975Z,1.90
2019-03-04T18:31:28.260Z,2.47
2019-03-04T18:34:08.287Z,2.23
2019-03-04T18:36:43.513Z,2.20
2019-03-04T18:39:18.585Z,2.37
2019-03-04T18:41:53.690Z,2.30
2019-03-04T18:44:47.873Z,2.20
2019-03-04T18:50:23.130Z,3.25
2019-03-04T18:52:48.998Z,3.10
2019-03-04T18:55:16.455Z,2.50
2019-03-04T18:57:43.919Z,2.10
2019-03-04T19:00:12.056Z,2.50
2019-03-04T19:02:40.277Z,2.13
2019-03-04T19:05:07.730Z,2.37
2019-03-04T19:07:35.233Z,2.10
2019-03-04T19:10:03.605Z,2.03
2019-03-04T19:12:31.055Z,2.03
2019-03-04T19:14:58.547Z,2.13
2019-03-04T19:17:33.341Z,2.10
2019-03-04T19:19:53.568Z,1.73
2019-03-04T19:22:21.016Z,1.73
2019-03-04T19:24:48.585Z,1.80
2019-03-04T19:27:16.041Z,1.93
2019-03-04T19:29:43.494Z,2.00
2019-03-04T19:32:10.973Z,1.73
2019-03-04T19:34:38.843Z,1.90
2019-03-04T19:37:06.332Z,1.87
2019-03-04T19:39:34.543Z,1.97
2019-03-04T19:42:04.168Z,2.13
2019-03-04T19:44:29.477Z,1.40
2019-03-04T19:46:56.939Z,1.67
2019-03-04T19:49:24.446Z,1.80
2019-03-04T19:51:51.898Z,1.43
2019-03-04T19:54:19.469Z,1.73
2019-03-04T19:56:47.024Z,1.43
2019-03-04T19:59:14.490Z,1.43
2019-03-04T20:01:42.045Z,1.87
2019-03-04T20:04:09.512Z,1.70
2019-03-04T20:06:36.953Z,1.67
2019-03-04T20:09:04.416Z,1.83
2019-03-04T20:11:31.906Z,2.00
2019-03-04T20:13:59.365Z,2.00
2019-03-04T20:16:26.814Z,1.50
2019-03-04T20:18:54.281Z,2.00
2019-03-04T20:21:21.750Z,1.63
2019-03-04T20:23:49.214Z,1.80
2019-03-04T20:26:16.767Z,1.80
2019-03-04T20:28:44.252Z,2.03
2019-03-04T20:31:12.521Z,1.70
2019-03-04T20:33:39.978Z,1.70
2019-03-04T20:36:07.442Z,1.60
2019-03-04T20:38:34.998Z,2.27
2019-03-04T20:41:02.563Z,2.50
2019-03-04T20:43:30.012Z,1.60
2019-03-04T20:45:57.459Z,1.77
2019-03-04T20:48:24.912Z,2.03
2019-03-04T20:50:52.372Z,1.60
2019-03-04T20:53:19.824Z,1.43
2019-03-04T20:55:47.322Z,1.67
2019-03-04T20:58:14.791Z,1.60
2019-03-04T21:00:42.249Z,1.67
2019-03-04T21:03:09.703Z,1.60
2019-03-04T21:05:37.209Z,1.77
2019-03-04T21:08:04.670Z,1.97
2019-03-04T21:10:32.900Z,1.47
2019-03-04T21:13:01.132Z,2.03
2019-03-04T21:15:29.343Z,1.47
2019-03-04T21:17:56.841Z,1.53
2019-03-04T21:20:24.421Z,1.40
2019-03-04T21:22:51.975Z,1.90
2019-03-04T21:25:38.884Z,1.87
2019-03-04T21:28:09.296Z,2.07
2019-03-04T21:31:10.253Z,2.17
2019-03-04T21:36:50.493Z,2.53
2019-03-04T21:42:20.918Z,2.40
2019-03-04T21:44:55.086Z,2.20
2019-03-04T21:47:25.178Z,1.77
2019-03-04T21:49:52.625Z,2.10
2019-03-04T21:52:42.202Z,2.30
2019-03-04T21:55:11.374Z,2.10
2019-03-04T21:57:39.574Z,2.43
2019-03-04T22:00:07.022Z,2.03
2019-03-04T22:02:35.300Z,2.87
2019-03-04T22:05:12.546Z,1.73
2019-03-04T22:07:40.017Z,2.07
2019-03-04T22:10:07.471Z,1.90
2019-03-04T22:12:34.943Z,2.50
2019-03-04T22:15:04.187Z,1.83
2019-03-04T22:17:31.663Z,2.03
2019-03-04T22:19:59.211Z,2.07
2019-03-04T22:22:26.666Z,1.90
2019-03-04T22:24:54.177Z,2.60
2019-03-04T22:27:22.486Z,2.53
2019-03-04T22:29:49.949Z,2.37
2019-03-04T22:32:17.391Z,2.20
2019-03-04T22:34:44.836Z,2.33
2019-03-04T22:37:12.299Z,2.63
2019-03-04T22:39:40.522Z,1.93
2019-03-04T22:42:07.976Z,2.03
2019-03-04T22:44:35.435Z,2.00
2019-03-04T22:47:04.149Z,2.30
2019-03-04T22:49:31.696Z,2.87
2019-03-04T22:51:59.175Z,2.60
2019-03-04T22:54:26.647Z,2.67
2019-03-04T22:56:54.890Z,2.13
2019-03-04T22:59:22.371Z,1.90
2019-03-04T23:01:49.821Z,2.03
2019-03-04T23:04:17.295Z,1.90
2019-03-04T23:06:54.430Z,2.20
2019-03-04T23:09:21.901Z,2.07
2019-03-04T23:14:45.493Z,2.78
2019-03-04T23:17:12.965Z,2.50
2019-03-04T23:19:40.433Z,3.47
2019-03-04T23:22:07.926Z,2.33
2019-03-04T23:24:36.178Z,1.97
2019-03-04T23:27:03.845Z,2.03
2019-03-04T23:29:31.582Z,2.20
2019-03-04T23:31:59.043Z,1.83
2019-03-04T23:34:26.500Z,2.07
2019-03-04T23:36:54.009Z,2.53
2019-03-04T23:39:21.571Z,2.40
2019-03-04T23:41:49.037Z,2.70
2019-03-04T23:44:16.498Z,2.17
2019-03-04T23:46:43.972Z,1.97
2019-03-04T23:49:11.503Z,2.33
2019-03-04T23:51:38.967Z,1.83
2019-03-04T23:54:06.416Z,1.97
2019-03-04T23:56:33.898Z,1.77
2019-03-04T23:59:01.359Z,2.20
